createdAt,value
2019-05-01T00:00:56.298Z,28.47
2019-05-01T00:03:25.775Z,29.70
2019-05-01T00:05:58.420Z,32.17
2019-05-01T00:08:26.081Z,33.50
2019-05-01T00:10:52.992Z,32.75
2019-05-01T00:13:20.122Z,33.80
2019-05-01T00:15:47.330Z,35.10
2019-05-01T00:18:16.524Z,34.60
2019-05-01T00:20:43.464Z,31.82
2019-05-01T00:23:10.565Z,31.57
2019-05-01T00:25:37.724Z,29.18
2019-05-01T00:28:05.578Z,28.25
2019-05-01T00:30:33.471Z,31.55
2019-05-01T00:33:00.382Z,34.10
2019-05-01T00:35:27.628Z,33.15
2019-05-01T00:37:54.626Z,33.90
2019-05-01T00:40:21.455Z,33.92
2019-05-01T00:42:48.659Z,31.37
2019-05-01T00:45:16.020Z,30.20
2019-05-01T00:47:43.019Z,30.23
2019-05-01T00:50:10.458Z,30.90
2019-05-01T00:52:37.580Z,34.05
2019-05-01T00:55:08.626Z,32.60
2019-05-01T00:57:37.759Z,32.05
2019-05-01T01:00:23.788Z,30.95
2019-05-01T01:02:53.652Z,30.17
2019-05-01T01:05:20.914Z,29.40
2019-05-01T01:07:48.315Z,30.72
2019-05-01T01:10:15.530Z,31.42
2019-05-01T01:12:42.852Z,33.10
2019-05-01T01:15:10.282Z,35.55
2019-05-01T01:17:37.378Z,35.65
2019-05-01T01:20:04.814Z,37.60
2019-05-01T01:22:32.210Z,34.60
2019-05-01T01:25:00.279Z,29.23
2019-05-01T01:27:27.686Z,29.23
2019-05-01T01:29:55.025Z,35.48
2019-05-01T01:32:22.335Z,38.40
2019-05-01T01:34:49.470Z,39.13
2019-05-01T01:37:16.667Z,41.20
2019-05-01T01:39:44.267Z,42.98
2019-05-01T01:42:13.336Z,40.80
2019-05-01T01:44:51.319Z,36.85
2019-05-01T01:47:18.459Z,34.05
2019-05-01T01:49:45.819Z,34.58
2019-05-01T01:52:13.809Z,37.63
2019-05-01T01:54:40.998Z,36.28
2019-05-01T01:57:09.045Z,37.50
2019-05-01T01:59:36.847Z,38.17
2019-05-01T02:02:12.755Z,37.98
2019-05-01T02:07:09.310Z,38.38
2019-05-01T02:09:36.865Z,38.10
2019-05-01T02:12:04.483Z,35.70
2019-05-01T02:14:31.861Z,37.58
2019-05-01T02:16:58.866Z,34.53
2019-05-01T02:19:26.182Z,33.58
2019-05-01T02:21:53.304Z,35.75
2019-05-01T02:24:20.586Z,34.75
2019-05-01T02:26:52.183Z,35.70
2019-05-01T02:29:37.049Z,34.65
2019-05-01T02:32:04.569Z,34.00
2019-05-01T02:34:32.572Z,33.60
2019-05-01T02:37:02.447Z,31.60
2019-05-01T02:39:31.186Z,32.35
2019-05-01T02:42:00.949Z,31.20
2019-05-01T02:44:42.621Z,30.80
2019-05-01T02:47:15.301Z,33.90
2019-05-01T02:49:53.851Z,33.50
2019-05-01T02:52:26.776Z,35.55
2019-05-01T02:54:57.690Z,34.78
2019-05-01T02:57:25.007Z,31.95
2019-05-01T02:59:54.349Z,32.20
2019-05-01T03:02:24.347Z,30.25
2019-05-01T03:04:51.514Z,29.25
2019-05-01T03:07:21.249Z,29.18
2019-05-01T03:09:49.482Z,30.12
2019-05-01T03:12:20.400Z,29.25
2019-05-01T03:14:50.715Z,30.12
2019-05-01T03:17:36.306Z,32.00
2019-05-01T03:20:07.319Z,29.60
2019-05-01T03:22:44.719Z,29.57
2019-05-01T03:25:12.403Z,29.55
2019-05-01T03:27:41.189Z,30.12
2019-05-01T03:30:08.530Z,30.95
2019-05-01T03:32:35.839Z,34.83
2019-05-01T03:35:05.255Z,34.80
2019-05-01T03:37:32.681Z,34.78
2019-05-01T03:40:00.163Z,33.02
2019-05-01T03:42:28.512Z,33.00
2019-05-01T03:44:56.122Z,29.07
2019-05-01T03:47:23.519Z,27.60
2019-05-01T03:49:51.296Z,28.35
2019-05-01T03:52:18.579Z,29.35
2019-05-01T03:54:45.927Z,29.10
2019-05-01T03:57:13.431Z,30.30
2019-05-01T03:59:40.720Z,31.33
2019-05-01T04:02:32.831Z,29.70
2019-05-01T04:04:52.150Z,28.70
2019-05-01T04:07:19.685Z,28.87
2019-05-01T04:09:47.249Z,27.85
2019-05-01T04:12:14.560Z,31.40
2019-05-01T04:14:41.961Z,32.78
2019-05-01T04:17:11.187Z,32.95
2019-05-01T04:19:38.774Z,32.65
2019-05-01T04:22:12.744Z,33.38
2019-05-01T04:24:40.684Z,33.10
2019-05-01T04:27:10.313Z,48.00
2019-05-01T04:29:42.238Z,42.80
2019-05-01T04:32:11.305Z,36.38
2019-05-01T04:34:40.399Z,35.40
2019-05-01T04:37:12.481Z,35.45
2019-05-01T04:39:39.707Z,34.67
2019-05-01T04:42:07.674Z,35.33
2019-05-01T04:44:35.166Z,31.73
2019-05-01T04:47:02.619Z,29.27
2019-05-01T04:49:29.928Z,29.12
2019-05-01T04:51:57.293Z,28.60
2019-05-01T04:54:24.506Z,28.40
2019-05-01T04:56:51.779Z,27.52
2019-05-01T04:59:19.072Z,30.00
2019-05-01T05:01:57.291Z,30.20
2019-05-01T05:04:25.460Z,29.40
2019-05-01T05:06:53.727Z,28.30
2019-05-01T05:09:23.323Z,26.30
2019-05-01T05:11:57.855Z,22.42
2019-05-01T05:14:32.819Z,23.27
2019-05-01T05:17:00.444Z,23.27
2019-05-01T05:19:27.632Z,23.32
2019-05-01T05:21:55.375Z,23.02
2019-05-01T05:24:22.789Z,22.77
2019-05-01T05:26:50.169Z,20.80
2019-05-01T05:29:18.362Z,19.95
2019-05-01T05:31:51.056Z,20.52
2019-05-01T05:34:19.655Z,18.75
2019-05-01T05:36:49.886Z,18.37
2019-05-01T05:39:28.783Z,18.90
2019-05-01T05:41:56.494Z,20.62
2019-05-01T05:44:23.874Z,20.32
2019-05-01T05:46:51.063Z,21.20
2019-05-01T05:49:19.031Z,18.92
2019-05-01T05:51:50.109Z,18.00
2019-05-01T05:54:28.976Z,18.07
2019-05-01T05:57:01.588Z,19.60
2019-05-01T05:59:33.463Z,18.23
2019-05-01T06:02:07.779Z,18.20
2019-05-01T06:04:40.836Z,20.08
2019-05-01T06:07:08.790Z,16.75
2019-05-01T06:09:48.488Z,18.27
2019-05-01T06:12:20.844Z,15.75
2019-05-01T06:15:02.426Z,15.40
2019-05-01T06:17:28.724Z,15.32
2019-05-01T06:19:59.125Z,15.18
2019-05-01T06:22:35.277Z,14.87
2019-05-01T06:27:32.897Z,15.53
2019-05-01T06:30:00.543Z,15.65
2019-05-01T06:32:28.835Z,14.20
2019-05-01T06:34:58.423Z,15.25
2019-05-01T06:37:56.031Z,14.47
2019-05-01T06:40:38.331Z,12.88
2019-05-01T06:43:11.662Z,11.45
2019-05-01T06:45:41.180Z,11.45
2019-05-01T06:48:14.339Z,12.45
2019-05-01T06:50:42.714Z,12.25
2019-05-01T06:53:10.004Z,11.28
2019-05-01T06:55:37.992Z,11.45
2019-05-01T06:58:05.486Z,10.43
2019-05-01T07:00:33.531Z,10.95
2019-05-01T07:03:01.295Z,10.55
2019-05-01T07:05:29.245Z,10.32
2019-05-01T07:07:56.638Z,9.08
2019-05-01T07:10:31.631Z,9.00
2019-05-01T07:12:54.887Z,7.97
2019-05-01T07:15:26.657Z,8.70
2019-05-01T07:17:51.151Z,7.50
2019-05-01T07:20:27.307Z,7.50
2019-05-01T07:22:54.647Z,7.78
2019-05-01T07:25:22.102Z,7.47
2019-05-01T07:27:49.134Z,7.22
2019-05-01T07:30:22.090Z,7.33
2019-05-01T07:32:49.091Z,7.30
2019-05-01T07:35:16.142Z,6.45
2019-05-01T07:37:43.547Z,6.45
2019-05-01T07:40:11.082Z,6.05
2019-05-01T07:42:48.308Z,6.75
2019-05-01T07:45:39.022Z,6.90
2019-05-01T07:48:06.877Z,6.97
2019-05-01T07:50:34.995Z,6.12
2019-05-01T07:53:02.216Z,6.28
2019-05-01T07:55:35.438Z,6.85
2019-05-01T07:58:04.931Z,6.80
2019-05-01T08:01:05.068Z,6.87
2019-05-01T08:03:32.255Z,6.60
2019-05-01T08:05:59.242Z,6.45
2019-05-01T08:08:26.382Z,6.62
2019-05-01T08:10:53.385Z,6.70
2019-05-01T08:13:20.306Z,6.28
2019-05-01T08:15:47.344Z,6.30
2019-05-01T08:18:24.141Z,7.30
2019-05-01T08:20:50.390Z,6.50
2019-05-01T08:23:17.854Z,6.33
2019-05-01T08:25:44.747Z,6.92
2019-05-01T08:28:13.931Z,6.60
2019-05-01T08:30:54.112Z,6.15
2019-05-01T08:33:33.067Z,7.17
2019-05-01T08:36:00.131Z,7.17
2019-05-01T08:38:29.753Z,6.72
2019-05-01T08:40:56.775Z,7.05
2019-05-01T08:43:23.947Z,6.83
2019-05-01T08:46:11.790Z,7.03
2019-05-01T08:48:40.300Z,7.03
2019-05-01T08:51:07.494Z,6.65
2019-05-01T08:53:34.445Z,6.47
2019-05-01T08:56:01.582Z,7.72
2019-05-01T08:58:28.451Z,6.72
2019-05-01T09:00:55.352Z,6.60
2019-05-01T09:03:22.674Z,7.25
2019-05-01T09:05:52.380Z,6.83
2019-05-01T09:08:18.696Z,6.12
2019-05-01T09:10:45.931Z,6.90
2019-05-01T09:13:12.875Z,7.40
2019-05-01T09:15:43.748Z,6.65
2019-05-01T09:18:08.617Z,6.55
2019-05-01T09:20:37.176Z,6.67
2019-05-01T09:23:04.184Z,6.85
2019-05-01T09:25:36.918Z,5.70
2019-05-01T09:28:09.336Z,6.10
2019-05-01T09:30:38.347Z,6.40
2019-05-01T09:33:05.571Z,6.20
2019-05-01T09:35:32.718Z,7.00
2019-05-01T09:37:59.741Z,6.12
2019-05-01T09:40:26.778Z,5.85
2019-05-01T09:42:54.593Z,6.25
2019-05-01T09:45:22.900Z,6.10
2019-05-01T09:47:50.075Z,6.28
2019-05-01T09:50:17.266Z,5.47
2019-05-01T09:52:50.119Z,5.58
2019-05-01T09:55:36.526Z,5.83
2019-05-01T09:58:03.727Z,6.25
2019-05-01T10:00:32.383Z,6.25
2019-05-01T10:02:59.667Z,5.92
2019-05-01T10:05:29.216Z,6.45
2019-05-01T10:08:00.094Z,6.65
2019-05-01T10:10:29.342Z,6.12
2019-05-01T10:12:54.398Z,6.08
2019-05-01T10:15:21.442Z,6.28
2019-05-01T10:17:48.614Z,6.45
2019-05-01T10:20:15.466Z,5.80
2019-05-01T10:22:44.863Z,5.53
2019-05-01T10:25:13.447Z,5.60
2019-05-01T10:27:43.219Z,5.42
2019-05-01T10:30:12.767Z,5.80
2019-05-01T10:32:41.923Z,5.22
2019-05-01T10:35:14.215Z,5.62
2019-05-01T10:37:39.951Z,5.58
2019-05-01T10:40:08.100Z,5.45
2019-05-01T10:42:35.118Z,5.35
2019-05-01T10:45:04.229Z,6.22
2019-05-01T10:47:31.035Z,5.30
2019-05-01T10:49:58.097Z,5.33
2019-05-01T10:52:25.263Z,5.65
2019-05-01T10:54:52.245Z,5.53
2019-05-01T10:57:19.041Z,5.87
2019-05-01T10:59:45.875Z,6.17
2019-05-01T11:02:13.911Z,6.83
2019-05-01T11:04:40.786Z,5.85
2019-05-01T11:07:07.935Z,5.80
2019-05-01T11:09:35.018Z,7.12
2019-05-01T11:12:02.059Z,5.83
2019-05-01T11:14:30.410Z,7.03
2019-05-01T11:16:57.439Z,7.05
2019-05-01T11:19:24.427Z,7.03
2019-05-01T11:21:51.610Z,7.78
2019-05-01T11:24:18.676Z,8.80
2019-05-01T11:26:45.622Z,7.30
2019-05-01T11:29:12.722Z,7.03
2019-05-01T11:31:51.374Z,6.37
2019-05-01T11:34:36.980Z,6.45
2019-05-01T11:37:23.115Z,7.12
2019-05-01T11:39:52.114Z,7.28
2019-05-01T11:42:19.331Z,5.87
2019-05-01T11:44:46.408Z,6.90
2019-05-01T11:47:13.450Z,6.70
2019-05-01T11:49:40.334Z,6.92
2019-05-01T11:52:07.343Z,7.15
2019-05-01T11:54:34.365Z,6.90
2019-05-01T11:57:01.412Z,7.03
2019-05-01T11:59:28.341Z,6.80
2019-05-01T12:01:55.735Z,6.10
2019-05-01T12:04:22.736Z,6.22
2019-05-01T12:06:49.878Z,7.00
2019-05-01T12:09:17.483Z,6.70
2019-05-01T12:11:46.523Z,6.58
2019-05-01T12:14:13.535Z,6.95
2019-05-01T12:16:52.662Z,6.28
2019-05-01T12:19:21.775Z,6.25
2019-05-01T12:21:48.933Z,6.03
2019-05-01T12:24:15.930Z,5.58
2019-05-01T12:26:42.891Z,5.35
2019-05-01T12:29:10.242Z,5.80
2019-05-01T12:31:37.202Z,5.00
2019-05-01T12:34:04.139Z,5.62
2019-05-01T12:36:36.382Z,5.35
2019-05-01T12:39:00.024Z,5.30
2019-05-01T12:41:34.721Z,5.70
2019-05-01T12:44:01.883Z,5.85
2019-05-01T12:46:40.816Z,6.15
2019-05-01T12:49:07.935Z,5.65
2019-05-01T12:51:35.435Z,5.95
2019-05-01T12:54:04.692Z,5.90
2019-05-01T12:56:36.831Z,6.17
2019-05-01T12:59:03.864Z,7.00
2019-05-01T13:01:30.817Z,6.28
2019-05-01T13:03:57.835Z,6.70
2019-05-01T13:06:25.781Z,6.00
2019-05-01T13:08:52.789Z,6.47
2019-05-01T13:11:19.855Z,6.28
2019-05-01T13:13:46.651Z,7.53
2019-05-01T13:16:13.725Z,6.37
2019-05-01T13:18:40.642Z,6.30
2019-05-01T13:21:09.948Z,6.03
2019-05-01T13:23:36.911Z,5.70
2019-05-01T13:26:05.886Z,5.95
2019-05-01T13:28:37.290Z,5.85
2019-05-01T13:31:04.635Z,5.67
2019-05-01T13:33:31.639Z,5.75
2019-05-01T13:35:58.887Z,6.00
2019-05-01T13:38:25.779Z,5.85
2019-05-01T13:40:53.231Z,5.42
2019-05-01T13:43:20.318Z,5.58
2019-05-01T13:45:47.261Z,5.97
2019-05-01T13:48:14.356Z,5.22
2019-05-01T13:50:41.319Z,5.45
2019-05-01T13:53:08.293Z,5.33
2019-05-01T13:55:35.287Z,5.15
2019-05-01T13:58:02.451Z,4.70
2019-05-01T14:00:29.461Z,4.95
2019-05-01T14:02:56.734Z,5.45
2019-05-01T14:05:23.929Z,6.03
2019-05-01T14:07:50.816Z,5.08
2019-05-01T14:10:17.945Z,5.20
2019-05-01T14:12:45.219Z,5.22
2019-05-01T14:15:12.656Z,5.50
2019-05-01T14:17:39.623Z,7.17
2019-05-01T14:20:16.443Z,6.95
2019-05-01T14:22:57.160Z,5.75
2019-05-01T14:25:24.072Z,6.33
2019-05-01T14:27:51.083Z,15.65
2019-05-01T14:30:18.353Z,7.83
2019-05-01T14:32:45.398Z,9.33
2019-05-01T14:35:13.811Z,10.05
2019-05-01T14:37:40.674Z,15.25
2019-05-01T14:40:08.373Z,11.53
2019-05-01T14:42:35.407Z,13.60
2019-05-01T14:45:06.406Z,19.32
2019-05-01T14:47:33.415Z,18.98
2019-05-01T14:50:00.318Z,12.15
2019-05-01T14:52:27.317Z,8.05
2019-05-01T14:54:54.373Z,9.13
2019-05-01T14:57:21.496Z,5.45
2019-05-01T14:59:48.542Z,6.40
2019-05-01T15:02:15.594Z,6.15
2019-05-01T15:04:42.552Z,6.97
2019-05-01T15:07:11.237Z,17.02
2019-05-01T15:09:38.346Z,49.08
2019-05-01T15:12:07.982Z,8.15
2019-05-01T15:14:36.891Z,5.58
2019-05-01T15:17:08.579Z,8.03
2019-05-01T15:19:43.542Z,7.53
2019-05-01T15:22:10.546Z,5.87
2019-05-01T15:24:37.548Z,4.92
2019-05-01T15:27:04.680Z,5.60
2019-05-01T15:29:31.697Z,6.10
2019-05-01T15:31:59.008Z,5.30
2019-05-01T15:34:25.816Z,5.28
2019-05-01T15:36:52.731Z,5.70
2019-05-01T15:39:30.693Z,5.75
2019-05-01T15:42:12.733Z,5.17
2019-05-01T15:44:41.581Z,6.00
2019-05-01T15:47:08.780Z,5.97
2019-05-01T15:49:35.730Z,5.67
2019-05-01T15:52:03.335Z,5.80
2019-05-01T15:54:30.382Z,6.22
2019-05-01T15:56:57.275Z,6.80
2019-05-01T15:59:24.303Z,5.83
2019-05-01T16:01:51.477Z,6.45
2019-05-01T16:04:18.594Z,5.33
2019-05-01T16:06:45.704Z,6.53
2019-05-01T16:09:12.978Z,5.40
2019-05-01T16:11:44.875Z,5.60
2019-05-01T16:14:11.996Z,6.15
2019-05-01T16:16:38.888Z,13.70
2019-05-01T16:19:05.731Z,11.18
2019-05-01T16:21:32.725Z,14.70
2019-05-01T16:24:00.050Z,9.53
2019-05-01T16:26:26.992Z,10.35
2019-05-01T16:28:53.978Z,11.03
2019-05-01T16:31:20.999Z,6.42
2019-05-01T16:33:47.933Z,6.25
2019-05-01T16:36:14.959Z,6.47
2019-05-01T16:38:44.086Z,5.95
2019-05-01T16:44:38.207Z,7.62
2019-05-01T16:47:05.320Z,8.65
2019-05-01T16:49:32.488Z,7.53
2019-05-01T16:51:59.551Z,16.52
2019-05-01T16:54:26.549Z,17.55
2019-05-01T16:56:53.486Z,18.85
2019-05-01T16:59:20.271Z,30.05
2019-05-01T17:01:51.809Z,16.42
2019-05-01T17:04:29.401Z,23.98
2019-05-01T17:07:07.220Z,20.45
2019-05-01T17:09:40.219Z,17.65
2019-05-01T17:12:07.468Z,18.10
2019-05-01T17:14:34.576Z,18.32
2019-05-01T17:17:01.600Z,24.20
2019-05-01T17:19:28.529Z,21.27
2019-05-01T17:21:55.452Z,17.07
2019-05-01T17:24:22.400Z,26.52
2019-05-01T17:26:49.384Z,41.85
2019-05-01T17:29:16.379Z,37.28
2019-05-01T17:31:43.419Z,47.13
2019-05-01T17:34:11.183Z,41.70
2019-05-01T17:36:38.158Z,43.48
2019-05-01T17:39:05.328Z,47.00
2019-05-01T17:41:32.328Z,31.77
2019-05-01T17:43:59.494Z,23.07
2019-05-01T17:46:26.411Z,31.17
2019-05-01T17:48:53.380Z,31.48
2019-05-01T17:51:20.386Z,26.07
2019-05-01T17:53:47.328Z,27.37
2019-05-01T17:56:15.224Z,23.32
2019-05-01T17:58:43.067Z,22.58
2019-05-01T18:01:33.141Z,28.20
2019-05-01T18:12:55.082Z,30.25
2019-05-01T18:15:22.317Z,22.10
2019-05-01T18:17:49.427Z,19.40
2019-05-01T18:20:16.369Z,18.30
2019-05-01T18:22:45.217Z,19.27
2019-05-01T18:25:14.163Z,20.57
2019-05-01T18:27:54.450Z,20.77
2019-05-01T18:30:23.787Z,22.17
2019-05-01T18:32:52.529Z,22.70
2019-05-01T18:35:19.815Z,25.82
2019-05-01T18:37:57.483Z,37.33
2019-05-01T18:40:29.220Z,42.05
2019-05-01T18:42:56.142Z,44.67
2019-05-01T18:45:49.685Z,49.98
2019-05-01T18:48:17.536Z,48.75
2019-05-01T18:50:49.314Z,43.30
2019-05-01T18:53:13.980Z,43.83
2019-05-01T18:55:40.873Z,37.53
2019-05-01T18:58:07.931Z,28.10
2019-05-01T19:00:35.039Z,38.48
2019-05-01T19:03:04.213Z,42.10
2019-05-01T19:05:31.471Z,39.90
2019-05-01T19:07:58.390Z,41.68
2019-05-01T19:10:25.509Z,41.65
2019-05-01T19:12:52.435Z,43.25
2019-05-01T19:15:19.697Z,39.55
2019-05-01T19:17:46.863Z,36.95
2019-05-01T19:20:14.095Z,37.95
2019-05-01T19:22:40.927Z,31.77
2019-05-01T19:25:10.883Z,30.55
2019-05-01T19:27:37.439Z,31.40
2019-05-01T19:30:09.886Z,28.57
2019-05-01T19:32:36.258Z,26.30
2019-05-01T19:35:07.090Z,26.37
2019-05-01T19:37:33.933Z,27.20
2019-05-01T19:40:01.593Z,26.95
2019-05-01T19:42:28.805Z,27.87
2019-05-01T19:44:57.428Z,27.93
2019-05-01T19:47:25.176Z,27.13
2019-05-01T19:49:54.560Z,29.30
2019-05-01T19:52:21.314Z,27.95
2019-05-01T19:54:48.325Z,27.73
2019-05-01T19:57:15.758Z,28.62
2019-05-01T19:59:42.857Z,30.88
2019-05-01T20:02:11.602Z,30.05
2019-05-01T20:04:38.607Z,30.30
2019-05-01T20:07:10.693Z,31.45
2019-05-01T20:09:35.427Z,33.28
2019-05-01T20:12:03.491Z,33.65
2019-05-01T20:14:30.662Z,31.85
2019-05-01T20:16:57.882Z,30.30
2019-05-01T20:19:24.963Z,31.12
2019-05-01T20:21:52.105Z,30.05
2019-05-01T20:24:19.429Z,26.05
2019-05-01T20:26:46.982Z,27.32
2019-05-01T20:29:14.109Z,32.03
2019-05-01T20:31:45.870Z,51.25
2019-05-01T20:34:12.075Z,84.90
2019-05-01T20:36:39.782Z,43.17
2019-05-01T20:39:07.297Z,64.53
2019-05-01T20:41:34.400Z,71.55
2019-05-01T20:44:01.744Z,43.65
2019-05-01T20:46:28.624Z,39.48
2019-05-01T20:48:56.160Z,27.52
2019-05-01T20:51:24.938Z,24.05
2019-05-01T20:53:52.469Z,23.85
2019-05-01T20:56:21.488Z,23.22
2019-05-01T20:58:48.648Z,22.55
2019-05-01T21:01:15.914Z,21.40
2019-05-01T21:03:44.721Z,23.90
2019-05-01T21:06:13.658Z,37.38
2019-05-01T21:08:42.659Z,41.13
2019-05-01T21:11:13.061Z,36.55
2019-05-01T21:13:40.020Z,30.12
2019-05-01T21:16:07.075Z,30.30
2019-05-01T21:18:34.097Z,31.20
2019-05-01T21:21:03.318Z,31.10
2019-05-01T21:23:30.875Z,29.77
2019-05-01T21:25:57.678Z,31.02
2019-05-01T21:28:24.770Z,31.95
2019-05-01T21:30:54.388Z,31.48
2019-05-01T21:33:23.634Z,31.23
2019-05-01T21:35:50.199Z,31.87
2019-05-01T21:38:17.199Z,33.28
2019-05-01T21:40:44.103Z,31.75
2019-05-01T21:43:13.418Z,32.35
2019-05-01T21:45:39.977Z,30.88
2019-05-01T21:48:07.246Z,31.48
2019-05-01T21:50:34.253Z,29.45
2019-05-01T21:53:03.309Z,28.75
2019-05-01T21:55:31.790Z,29.63
2019-05-01T21:57:58.835Z,29.82
2019-05-01T22:00:28.576Z,29.07
2019-05-01T22:02:55.620Z,27.82
2019-05-01T22:05:22.773Z,27.45
2019-05-01T22:07:49.796Z,27.25
2019-05-01T22:10:16.814Z,27.60
2019-05-01T22:12:48.954Z,28.45
2019-05-01T22:15:31.169Z,27.25
2019-05-01T22:18:00.179Z,28.52
2019-05-01T22:20:29.003Z,29.63
2019-05-01T22:23:00.726Z,32.13
2019-05-01T22:25:32.326Z,30.68
2019-05-01T22:28:13.927Z,30.62
2019-05-01T22:30:42.270Z,30.37
2019-05-01T22:33:09.948Z,32.73
2019-05-01T22:35:47.572Z,31.00
2019-05-01T22:38:14.714Z,33.45
2019-05-01T22:40:47.486Z,32.88
2019-05-01T22:43:14.782Z,32.38
2019-05-01T22:45:41.724Z,31.00
2019-05-01T22:48:08.526Z,32.60
2019-05-01T22:50:35.445Z,31.45
2019-05-01T22:53:02.586Z,31.02
2019-05-01T22:55:29.425Z,33.73
2019-05-01T22:57:56.611Z,32.05
2019-05-01T23:00:40.338Z,32.20
2019-05-01T23:03:09.190Z,31.73
2019-05-01T23:05:36.600Z,30.15
2019-05-01T23:08:03.878Z,29.52
2019-05-01T23:10:31.307Z,29.52
2019-05-01T23:12:58.505Z,29.67
2019-05-01T23:15:27.832Z,28.95
2019-05-01T23:17:55.023Z,31.17
2019-05-01T23:20:22.926Z,32.15
2019-05-01T23:22:49.798Z,32.45
2019-05-01T23:25:17.022Z,33.65
2019-05-01T23:27:44.130Z,31.70
2019-05-01T23:30:13.383Z,31.10
2019-05-01T23:32:40.576Z,29.35
2019-05-01T23:35:07.902Z,29.50
2019-05-01T23:37:36.087Z,29.72
2019-05-01T23:40:05.512Z,30.80
2019-05-01T23:42:32.479Z,32.58
2019-05-01T23:44:59.386Z,32.20
2019-05-01T23:47:26.294Z,32.50
2019-05-01T23:49:53.842Z,30.32
2019-05-01T23:52:21.163Z,30.50
2019-05-01T23:54:48.087Z,29.50
2019-05-01T23:57:18.890Z,30.65
2019-05-01T23:59:43.959Z,31.00
